sensor_id;sensor_type;location;lat;lon;timestamp;temperature;humidity
49042;DHT22;34859;51.608;11.462;2024-02-26T00:01:52;0.90;99.90
49042;DHT22;34859;51.608;11.462;2024-02-26T00:04:38;0.80;99.90
49042;DHT22;34859;51.608;11.462;2024-02-26T00:07:24;0.70;99.90
49042;DHT22;34859;51.608;11.462;2024-02-26T00:10:10;0.50;99.90
49042;DHT22;34859;51.608;11.462;2024-02-26T00:12:56;0.50;99.90
49042;DHT22;34859;51.608;11.462;2024-02-26T00:15:42;0.50;99.90
49042;DHT22;34859;51.608;11.462;2024-02-26T00:18:28;0.40;99.90
49042;DHT22;34859;51.608;11.462;2024-02-26T00:21:14;0.40;99.90
49042;DHT22;34859;51.608;11.462;2024-02-26T00:24:00;0.50;99.90
49042;DHT22;34859;51.608;11.462;2024-02-26T00:26:46;0.60;99.90
49042;DHT22;34859;51.608;11.462;2024-02-26T00:29:32;0.50;99.90
49042;DHT22;34859;51.608;11.462;2024-02-26T00:32:18;0.40;99.90
49042;DHT22;34859;51.608;11.462;2024-02-26T00:35:04;0.40;99.90
49042;DHT22;34859;51.608;11.462;2024-02-26T00:37:50;0.40;99.90
49042;DHT22;34859;51.608;11.462;2024-02-26T00:40:36;0.30;99.90
49042;DHT22;34859;51.608;11.462;2024-02-26T00:43:22;0.30;99.90
49042;DHT22;34859;51.608;11.462;2024-02-26T00:46:07;0.30;99.90
49042;DHT22;34859;51.608;11.462;2024-02-26T00:48:53;0.30;99.90
49042;DHT22;34859;51.608;11.462;2024-02-26T00:51:39;0.30;99.90
49042;DHT22;34859;51.608;11.462;2024-02-26T00:54:25;0.30;99.90
49042;DHT22;34859;51.608;11.462;2024-02-26T00:57:11;0.30;99.90
49042;DHT22;34859;51.608;11.462;2024-02-26T00:59:57;0.30;99.90
49042;DHT22;34859;51.608;11.462;2024-02-26T01:02:43;0.20;99.90
49042;DHT22;34859;51.608;11.462;2024-02-26T01:05:32;0.20;99.90
49042;DHT22;34859;51.608;11.462;2024-02-26T01:08:18;0.20;99.90
49042;DHT22;34859;51.608;11.462;2024-02-26T01:11:03;0.20;99.90
49042;DHT22;34859;51.608;11.462;2024-02-26T01:13:50;0.10;99.90
49042;DHT22;34859;51.608;11.462;2024-02-26T01:16:39;0.10;99.90
49042;DHT22;34859;51.608;11.462;2024-02-26T01:19:25;0.10;99.90
49042;DHT22;34859;51.608;11.462;2024-02-26T01:22:11;0.10;99.90
49042;DHT22;34859;51.608;11.462;2024-02-26T01:24:57;0.10;99.90
49042;DHT22;34859;51.608;11.462;2024-02-26T01:27:43;0.10;99.90
49042;DHT22;34859;51.608;11.462;2024-02-26T01:30:29;0.10;99.90
49042;DHT22;34859;51.608;11.462;2024-02-26T01:33:15;0.00;99.90
49042;DHT22;34859;51.608;11.462;2024-02-26T01:36:01;0.10;99.90
49042;DHT22;34859;51.608;11.462;2024-02-26T01:38:47;0.10;99.90
49042;DHT22;34859;51.608;11.462;2024-02-26T01:41:33;0.10;99.90
49042;DHT22;34859;51.608;11.462;2024-02-26T01:44:19;0.00;99.90
49042;DHT22;34859;51.608;11.462;2024-02-26T01:47:07;0.00;99.90
49042;DHT22;34859;51.608;11.462;2024-02-26T01:49:56;-0.10;99.90
49042;DHT22;34859;51.608;11.462;2024-02-26T01:52:42;0.00;99.90
49042;DHT22;34859;51.608;11.462;2024-02-26T01:55:28;0.00;99.90
49042;DHT22;34859;51.608;11.462;2024-02-26T01:58:14;0.00;99.90
49042;DHT22;34859;51.608;11.462;2024-02-26T02:01:02;0.00;99.90
49042;DHT22;34859;51.608;11.462;2024-02-26T02:03:48;0.00;99.90
49042;DHT22;34859;51.608;11.462;2024-02-26T02:06:36;0.00;99.90
49042;DHT22;34859;51.608;11.462;2024-02-26T02:09:23;0.00;99.90
49042;DHT22;34859;51.608;11.462;2024-02-26T02:12:10;0.00;99.90
49042;DHT22;34859;51.608;11.462;2024-02-26T02:14:56;-0.10;99.90
49042;DHT22;34859;51.608;11.462;2024-02-26T02:17:43;0.00;99.90
49042;DHT22;34859;51.608;11.462;2024-02-26T02:20:32;-0.10;99.90
49042;DHT22;34859;51.608;11.462;2024-02-26T02:23:19;-0.10;99.90
49042;DHT22;34859;51.608;11.462;2024-02-26T02:26:05;-0.10;99.90
49042;DHT22;34859;51.608;11.462;2024-02-26T02:28:51;-0.10;99.90
49042;DHT22;34859;51.608;11.462;2024-02-26T02:31:38;-0.10;99.90
49042;DHT22;34859;51.608;11.462;2024-02-26T02:34:25;0.00;99.90
49042;DHT22;34859;51.608;11.462;2024-02-26T02:37:11;-0.10;99.90
49042;DHT22;34859;51.608;11.462;2024-02-26T02:39:57;-0.10;99.90
49042;DHT22;34859;51.608;11.462;2024-02-26T02:42:43;-0.30;99.90
49042;DHT22;34859;51.608;11.462;2024-02-26T02:45:29;-0.30;99.90
49042;DHT22;34859;51.608;11.462;2024-02-26T02:48:15;-0.20;99.90
49042;DHT22;34859;51.608;11.462;2024-02-26T02:51:01;-0.20;99.90
49042;DHT22;34859;51.608;11.462;2024-02-26T02:53:46;-0.20;99.90
49042;DHT22;34859;51.608;11.462;2024-02-26T02:56:32;-0.20;99.90
49042;DHT22;34859;51.608;11.462;2024-02-26T02:59:18;-0.20;99.90
49042;DHT22;34859;51.608;11.462;2024-02-26T03:02:04;-0.20;99.90
49042;DHT22;34859;51.608;11.462;2024-02-26T03:04:50;-0.20;99.90
49042;DHT22;34859;51.608;11.462;2024-02-26T03:07:36;-0.20;99.90
49042;DHT22;34859;51.608;11.462;2024-02-26T03:10:22;-0.20;99.90
49042;DHT22;34859;51.608;11.462;2024-02-26T03:13:08;-0.20;99.90
49042;DHT22;34859;51.608;11.462;2024-02-26T03:15:54;-0.20;99.90
49042;DHT22;34859;51.608;11.462;2024-02-26T03:18:40;-0.20;99.90
49042;DHT22;34859;51.608;11.462;2024-02-26T03:21:27;-0.20;99.90
49042;DHT22;34859;51.608;11.462;2024-02-26T03:24:13;-0.20;99.90
49042;DHT22;34859;51.608;11.462;2024-02-26T03:26:59;-0.30;99.90
49042;DHT22;34859;51.608;11.462;2024-02-26T03:29:45;-0.30;99.90
49042;DHT22;34859;51.608;11.462;2024-02-26T03:32:30;-0.30;99.90
49042;DHT22;34859;51.608;11.462;2024-02-26T03:35:16;-0.30;99.90
49042;DHT22;34859;51.608;11.462;2024-02-26T03:38:02;-0.30;99.90
49042;DHT22;34859;51.608;11.462;2024-02-26T03:40:48;-0.30;99.90
49042;DHT22;34859;51.608;11.462;2024-02-26T03:43:34;-0.30;99.90
49042;DHT22;34859;51.608;11.462;2024-02-26T03:46:20;-0.30;99.90
49042;DHT22;34859;51.608;11.462;2024-02-26T03:49:06;-0.30;99.90
49042;DHT22;34859;51.608;11.462;2024-02-26T03:51:52;-0.30;99.90
49042;DHT22;34859;51.608;11.462;2024-02-26T03:54:38;-0.30;99.90
49042;DHT22;34859;51.608;11.462;2024-02-26T03:57:24;-0.30;99.90
49042;DHT22;34859;51.608;11.462;2024-02-26T04:00:10;-0.40;99.90
49042;DHT22;34859;51.608;11.462;2024-02-26T04:02:56;-0.40;99.90
49042;DHT22;34859;51.608;11.462;2024-02-26T04:05:42;-0.30;99.90
49042;DHT22;34859;51.608;11.462;2024-02-26T04:08:28;-0.40;99.90
49042;DHT22;34859;51.608;11.462;2024-02-26T04:11:14;-0.30;99.90
49042;DHT22;34859;51.608;11.462;2024-02-26T04:14:03;-0.30;99.90
49042;DHT22;34859;51.608;11.462;2024-02-26T04:16:49;-0.30;99.90
49042;DHT22;34859;51.608;11.462;2024-02-26T04:19:37;-0.30;99.90
49042;DHT22;34859;51.608;11.462;2024-02-26T04:22:23;-0.30;99.90
49042;DHT22;34859;51.608;11.462;2024-02-26T04:25:09;-0.30;99.90
49042;DHT22;34859;51.608;11.462;2024-02-26T04:27:55;-0.20;99.90
49042;DHT22;34859;51.608;11.462;2024-02-26T04:30:42;-0.20;99.90
49042;DHT22;34859;51.608;11.462;2024-02-26T04:33:28;-0.20;99.90
49042;DHT22;34859;51.608;11.462;2024-02-26T04:36:14;-0.20;99.90
49042;DHT22;34859;51.608;11.462;2024-02-26T04:39:03;-0.20;99.90
49042;DHT22;34859;51.608;11.462;2024-02-26T04:41:48;-0.20;99.90
49042;DHT22;34859;51.608;11.462;2024-02-26T04:44:34;-0.20;99.90
49042;DHT22;34859;51.608;11.462;2024-02-26T04:47:20;-0.20;99.90
49042;DHT22;34859;51.608;11.462;2024-02-26T04:50:08;-0.20;99.90
49042;DHT22;34859;51.608;11.462;2024-02-26T04:52:54;-0.20;99.90
49042;DHT22;34859;51.608;11.462;2024-02-26T04:55:40;-0.20;99.90
49042;DHT22;34859;51.608;11.462;2024-02-26T04:58:25;-0.20;99.90
49042;DHT22;34859;51.608;11.462;2024-02-26T05:01:11;-0.20;99.90
49042;DHT22;34859;51.608;11.462;2024-02-26T05:03:57;-0.30;99.90
49042;DHT22;34859;51.608;11.462;2024-02-26T05:06:43;-0.30;99.90
49042;DHT22;34859;51.608;11.462;2024-02-26T05:09:29;-0.40;99.90
49042;DHT22;34859;51.608;11.462;2024-02-26T05:12:15;-0.30;99.90
49042;DHT22;34859;51.608;11.462;2024-02-26T05:15:02;-0.30;99.90
49042;DHT22;34859;51.608;11.462;2024-02-26T05:17:49;-0.30;99.90
49042;DHT22;34859;51.608;11.462;2024-02-26T05:20:34;-0.30;99.90
49042;DHT22;34859;51.608;11.462;2024-02-26T05:23:23;-0.20;99.90
49042;DHT22;34859;51.608;11.462;2024-02-26T05:26:09;-0.20;99.90
49042;DHT22;34859;51.608;11.462;2024-02-26T05:28:55;-0.10;99.90
49042;DHT22;34859;51.608;11.462;2024-02-26T05:31:45;-0.10;99.90
49042;DHT22;34859;51.608;11.462;2024-02-26T05:34:31;-0.20;99.90
49042;DHT22;34859;51.608;11.462;2024-02-26T05:37:17;-0.20;99.90
49042;DHT22;34859;51.608;11.462;2024-02-26T05:40:05;-0.20;99.90
49042;DHT22;34859;51.608;11.462;2024-02-26T05:42:51;-0.10;99.90
49042;DHT22;34859;51.608;11.462;2024-02-26T05:45:37;-0.10;99.90
49042;DHT22;34859;51.608;11.462;2024-02-26T05:48:23;-0.20;99.90
49042;DHT22;34859;51.608;11.462;2024-02-26T05:51:09;-0.10;99.90
49042;DHT22;34859;51.608;11.462;2024-02-26T05:53:55;-0.10;99.90
49042;DHT22;34859;51.608;11.462;2024-02-26T05:56:41;-0.10;99.90
49042;DHT22;34859;51.608;11.462;2024-02-26T05:59:28;-0.10;99.90
49042;DHT22;34859;51.608;11.462;2024-02-26T06:02:14;-0.10;99.90
49042;DHT22;34859;51.608;11.462;2024-02-26T06:05:00;-0.10;99.90
49042;DHT22;34859;51.608;11.462;2024-02-26T06:07:46;0.00;99.90
49042;DHT22;34859;51.608;11.462;2024-02-26T06:10:31;0.00;99.90
49042;DHT22;34859;51.608;11.462;2024-02-26T06:13:17;0.00;99.90
49042;DHT22;34859;51.608;11.462;2024-02-26T06:16:04;0.00;99.90
49042;DHT22;34859;51.608;11.462;2024-02-26T06:18:50;0.10;99.90
49042;DHT22;34859;51.608;11.462;2024-02-26T06:21:36;0.10;99.90
49042;DHT22;34859;51.608;11.462;2024-02-26T06:24:22;0.10;99.90
49042;DHT22;34859;51.608;11.462;2024-02-26T06:27:08;0.10;99.90
49042;DHT22;34859;51.608;11.462;2024-02-26T06:29:54;0.20;99.90
49042;DHT22;34859;51.608;11.462;2024-02-26T06:32:40;0.20;99.90
49042;DHT22;34859;51.608;11.462;2024-02-26T06:35:27;0.30;99.90
49042;DHT22;34859;51.608;11.462;2024-02-26T06:38:13;0.30;99.90
49042;DHT22;34859;51.608;11.462;2024-02-26T06:40:59;0.30;99.90
49042;DHT22;34859;51.608;11.462;2024-02-26T06:43:45;0.40;99.90
49042;DHT22;34859;51.608;11.462;2024-02-26T06:46:31;0.40;99.90
49042;DHT22;34859;51.608;11.462;2024-02-26T06:49:17;0.40;99.90
49042;DHT22;34859;51.608;11.462;2024-02-26T06:52:03;0.50;99.90
49042;DHT22;34859;51.608;11.462;2024-02-26T06:54:50;0.50;99.90
49042;DHT22;34859;51.608;11.462;2024-02-26T06:57:36;0.60;99.90
49042;DHT22;34859;51.608;11.462;2024-02-26T07:00:22;0.70;99.90
49042;DHT22;34859;51.608;11.462;2024-02-26T07:03:09;0.70;99.90
49042;DHT22;34859;51.608;11.462;2024-02-26T07:05:54;0.80;99.90
49042;DHT22;34859;51.608;11.462;2024-02-26T07:08:40;0.80;99.90
49042;DHT22;34859;51.608;11.462;2024-02-26T07:11:26;0.90;99.90
49042;DHT22;34859;51.608;11.462;2024-02-26T07:14:12;0.90;99.90
49042;DHT22;34859;51.608;11.462;2024-02-26T07:16:58;1.00;99.90
49042;DHT22;34859;51.608;11.462;2024-02-26T07:19:44;1.00;99.90
49042;DHT22;34859;51.608;11.462;2024-02-26T07:22:30;1.00;99.90
49042;DHT22;34859;51.608;11.462;2024-02-26T07:25:16;1.00;99.90
49042;DHT22;34859;51.608;11.462;2024-02-26T07:28:02;1.10;99.90
49042;DHT22;34859;51.608;11.462;2024-02-26T07:30:49;1.10;99.90
49042;DHT22;34859;51.608;11.462;2024-02-26T07:33:35;1.10;99.90
49042;DHT22;34859;51.608;11.462;2024-02-26T07:36:20;1.20;99.90
49042;DHT22;34859;51.608;11.462;2024-02-26T07:39:06;1.30;99.90
49042;DHT22;34859;51.608;11.462;2024-02-26T07:41:52;1.40;99.90
49042;DHT22;34859;51.608;11.462;2024-02-26T07:44:38;1.40;99.90
49042;DHT22;34859;51.608;11.462;2024-02-26T07:47:28;1.40;99.90
49042;DHT22;34859;51.608;11.462;2024-02-26T07:50:15;1.40;99.90
49042;DHT22;34859;51.608;11.462;2024-02-26T07:53:01;1.50;99.90
49042;DHT22;34859;51.608;11.462;2024-02-26T07:55:47;1.60;99.90
49042;DHT22;34859;51.608;11.462;2024-02-26T07:58:33;1.60;99.90
49042;DHT22;34859;51.608;11.462;2024-02-26T08:01:19;1.60;99.90
49042;DHT22;34859;51.608;11.462;2024-02-26T08:04:05;1.80;99.90
49042;DHT22;34859;51.608;11.462;2024-02-26T08:06:51;1.90;99.90
49042;DHT22;34859;51.608;11.462;2024-02-26T08:09:36;2.00;99.90
49042;DHT22;34859;51.608;11.462;2024-02-26T08:12:22;2.20;99.90
49042;DHT22;34859;51.608;11.462;2024-02-26T08:15:08;2.20;99.90
49042;DHT22;34859;51.608;11.462;2024-02-26T08:17:54;2.30;99.90
49042;DHT22;34859;51.608;11.462;2024-02-26T08:20:40;2.40;99.90
49042;DHT22;34859;51.608;11.462;2024-02-26T08:23:26;2.50;99.90
49042;DHT22;34859;51.608;11.462;2024-02-26T08:26:12;2.60;99.90
49042;DHT22;34859;51.608;11.462;2024-02-26T08:28:58;2.60;99.90
49042;DHT22;34859;51.608;11.462;2024-02-26T08:31:44;2.70;99.90
49042;DHT22;34859;51.608;11.462;2024-02-26T08:34:30;2.70;99.90
49042;DHT22;34859;51.608;11.462;2024-02-26T08:37:16;2.90;99.90
49042;DHT22;34859;51.608;11.462;2024-02-26T08:40:02;3.00;99.90
49042;DHT22;34859;51.608;11.462;2024-02-26T08:42:49;3.00;99.90
49042;DHT22;34859;51.608;11.462;2024-02-26T08:45:35;3.20;99.90
49042;DHT22;34859;51.608;11.462;2024-02-26T08:48:21;3.40;99.90
49042;DHT22;34859;51.608;11.462;2024-02-26T08:51:07;3.60;99.90
49042;DHT22;34859;51.608;11.462;2024-02-26T08:53:53;3.60;99.90
49042;DHT22;34859;51.608;11.462;2024-02-26T08:56:39;3.50;99.90
49042;DHT22;34859;51.608;11.462;2024-02-26T08:59:25;3.50;99.90
49042;DHT22;34859;51.608;11.462;2024-02-26T09:02:11;3.60;99.90
49042;DHT22;34859;51.608;11.462;2024-02-26T09:04:57;3.70;99.90
49042;DHT22;34859;51.608;11.462;2024-02-26T09:07:44;4.00;99.90
49042;DHT22;34859;51.608;11.462;2024-02-26T09:10:30;4.20;99.90
49042;DHT22;34859;51.608;11.462;2024-02-26T09:13:16;4.30;99.90
49042;DHT22;34859;51.608;11.462;2024-02-26T09:16:01;4.40;99.90
49042;DHT22;34859;51.608;11.462;2024-02-26T09:18:48;4.60;99.90
49042;DHT22;34859;51.608;11.462;2024-02-26T09:21:34;4.70;99.90
49042;DHT22;34859;51.608;11.462;2024-02-26T09:24:20;4.70;99.90
49042;DHT22;34859;51.608;11.462;2024-02-26T09:27:06;4.70;99.90
49042;DHT22;34859;51.608;11.462;2024-02-26T09:29:52;4.80;99.90
49042;DHT22;34859;51.608;11.462;2024-02-26T09:32:38;4.90;99.90
49042;DHT22;34859;51.608;11.462;2024-02-26T09:35:24;4.90;99.90
49042;DHT22;34859;51.608;11.462;2024-02-26T09:38:10;4.90;99.90
49042;DHT22;34859;51.608;11.462;2024-02-26T09:40:57;4.90;99.90
49042;DHT22;34859;51.608;11.462;2024-02-26T09:43:44;4.90;99.90
49042;DHT22;34859;51.608;11.462;2024-02-26T09:46:31;4.90;99.90
49042;DHT22;34859;51.608;11.462;2024-02-26T09:49:21;4.90;99.90
49042;DHT22;34859;51.608;11.462;2024-02-26T09:52:09;5.00;99.90
49042;DHT22;34859;51.608;11.462;2024-02-26T09:54:55;5.00;99.90
49042;DHT22;34859;51.608;11.462;2024-02-26T09:57:45;5.00;99.90
49042;DHT22;34859;51.608;11.462;2024-02-26T10:00:31;5.00;99.90
49042;DHT22;34859;51.608;11.462;2024-02-26T10:03:22;5.10;99.90
49042;DHT22;34859;51.608;11.462;2024-02-26T10:06:11;5.10;99.90
49042;DHT22;34859;51.608;11.462;2024-02-26T10:08:57;5.10;99.90
49042;DHT22;34859;51.608;11.462;2024-02-26T10:11:47;5.10;99.90
49042;DHT22;34859;51.608;11.462;2024-02-26T10:14:34;5.10;99.90
49042;DHT22;34859;51.608;11.462;2024-02-26T10:17:27;5.20;99.90
49042;DHT22;34859;51.608;11.462;2024-02-26T10:20:16;5.20;99.90
49042;DHT22;34859;51.608;11.462;2024-02-26T10:23:07;5.20;99.90
49042;DHT22;34859;51.608;11.462;2024-02-26T10:25:56;5.30;99.90
49042;DHT22;34859;51.608;11.462;2024-02-26T10:28:43;5.30;99.90
49042;DHT22;34859;51.608;11.462;2024-02-26T10:31:29;5.40;99.90
49042;DHT22;34859;51.608;11.462;2024-02-26T10:34:18;5.50;99.90
49042;DHT22;34859;51.608;11.462;2024-02-26T10:37:05;5.50;99.90
49042;DHT22;34859;51.608;11.462;2024-02-26T10:39:51;5.60;99.90
49042;DHT22;34859;51.608;11.462;2024-02-26T10:42:37;5.60;99.90
49042;DHT22;34859;51.608;11.462;2024-02-26T10:45:24;5.70;99.90
49042;DHT22;34859;51.608;11.462;2024-02-26T10:48:11;5.80;99.90
49042;DHT22;34859;51.608;11.462;2024-02-26T10:50:57;5.90;99.90
49042;DHT22;34859;51.608;11.462;2024-02-26T10:53:45;6.10;99.90
49042;DHT22;34859;51.608;11.462;2024-02-26T10:56:34;6.20;99.90
49042;DHT22;34859;51.608;11.462;2024-02-26T10:59:23;6.20;99.90
49042;DHT22;34859;51.608;11.462;2024-02-26T11:02:10;6.30;99.90
49042;DHT22;34859;51.608;11.462;2024-02-26T11:05:02;6.30;99.90
49042;DHT22;34859;51.608;11.462;2024-02-26T11:07:49;6.40;99.90
49042;DHT22;34859;51.608;11.462;2024-02-26T11:10:36;6.60;99.90
49042;DHT22;34859;51.608;11.462;2024-02-26T11:13:25;6.60;99.90
49042;DHT22;34859;51.608;11.462;2024-02-26T11:16:12;6.70;99.90
49042;DHT22;34859;51.608;11.462;2024-02-26T11:19:00;6.80;99.90
49042;DHT22;34859;51.608;11.462;2024-02-26T11:21:47;7.00;99.90
49042;DHT22;34859;51.608;11.462;2024-02-26T11:24:33;7.00;99.90
49042;DHT22;34859;51.608;11.462;2024-02-26T11:27:23;7.20;99.90
49042;DHT22;34859;51.608;11.462;2024-02-26T11:30:10;7.50;99.90
49042;DHT22;34859;51.608;11.462;2024-02-26T11:32:58;7.60;99.90
49042;DHT22;34859;51.608;11.462;2024-02-26T11:35:44;7.70;99.90
49042;DHT22;34859;51.608;11.462;2024-02-26T11:38:33;7.80;99.90
49042;DHT22;34859;51.608;11.462;2024-02-26T11:41:20;7.80;99.90
49042;DHT22;34859;51.608;11.462;2024-02-26T11:44:05;7.90;99.90
49042;DHT22;34859;51.608;11.462;2024-02-26T11:46:52;8.00;99.90
49042;DHT22;34859;51.608;11.462;2024-02-26T11:49:39;8.00;99.90
49042;DHT22;34859;51.608;11.462;2024-02-26T11:52:25;8.00;99.90
49042;DHT22;34859;51.608;11.462;2024-02-26T11:55:11;8.00;99.90
49042;DHT22;34859;51.608;11.462;2024-02-26T11:57:57;8.10;99.90
49042;DHT22;34859;51.608;11.462;2024-02-26T12:00:43;8.00;99.90
49042;DHT22;34859;51.608;11.462;2024-02-26T12:03:29;8.00;99.90
49042;DHT22;34859;51.608;11.462;2024-02-26T12:06:16;8.00;99.90
49042;DHT22;34859;51.608;11.462;2024-02-26T12:09:04;8.00;99.90
49042;DHT22;34859;51.608;11.462;2024-02-26T12:11:50;7.90;99.90
49042;DHT22;34859;51.608;11.462;2024-02-26T12:14:41;8.10;99.90
49042;DHT22;34859;51.608;11.462;2024-02-26T12:17:36;8.10;99.90
49042;DHT22;34859;51.608;11.462;2024-02-26T12:20:22;8.20;99.90
49042;DHT22;34859;51.608;11.462;2024-02-26T12:23:08;8.30;99.90
49042;DHT22;34859;51.608;11.462;2024-02-26T12:25:58;8.40;99.90
49042;DHT22;34859;51.608;11.462;2024-02-26T12:28:46;8.40;99.90
49042;DHT22;34859;51.608;11.462;2024-02-26T12:31:33;8.50;99.90
49042;DHT22;34859;51.608;11.462;2024-02-26T12:34:19;8.60;99.90
49042;DHT22;34859;51.608;11.462;2024-02-26T12:37:06;8.50;99.90
49042;DHT22;34859;51.608;11.462;2024-02-26T12:39:54;8.60;99.90
49042;DHT22;34859;51.608;11.462;2024-02-26T12:42:40;8.70;99.90
49042;DHT22;34859;51.608;11.462;2024-02-26T12:45:27;8.70;99.90
49042;DHT22;34859;51.608;11.462;2024-02-26T12:48:14;8.80;99.90
49042;DHT22;34859;51.608;11.462;2024-02-26T12:51:00;8.90;99.90
49042;DHT22;34859;51.608;11.462;2024-02-26T12:53:46;9.00;99.90
49042;DHT22;34859;51.608;11.462;2024-02-26T12:56:35;9.10;99.90
49042;DHT22;34859;51.608;11.462;2024-02-26T12:59:21;9.10;99.90
49042;DHT22;34859;51.608;11.462;2024-02-26T13:02:07;9.10;99.90
49042;DHT22;34859;51.608;11.462;2024-02-26T13:04:55;9.30;99.90
49042;DHT22;34859;51.608;11.462;2024-02-26T13:07:43;9.30;99.90
49042;DHT22;34859;51.608;11.462;2024-02-26T13:10:29;9.50;99.90
49042;DHT22;34859;51.608;11.462;2024-02-26T13:13:15;9.40;99.90
49042;DHT22;34859;51.608;11.462;2024-02-26T13:16:05;9.40;99.90
49042;DHT22;34859;51.608;11.462;2024-02-26T13:18:53;9.30;99.90
49042;DHT22;34859;51.608;11.462;2024-02-26T13:21:39;9.20;99.90
49042;DHT22;34859;51.608;11.462;2024-02-26T13:24:25;9.20;99.90
49042;DHT22;34859;51.608;11.462;2024-02-26T13:27:11;9.30;99.90
49042;DHT22;34859;51.608;11.462;2024-02-26T13:30:05;9.30;99.90
49042;DHT22;34859;51.608;11.462;2024-02-26T13:32:51;9.40;99.90
49042;DHT22;34859;51.608;11.462;2024-02-26T13:35:37;9.50;99.90
49042;DHT22;34859;51.608;11.462;2024-02-26T13:38:25;9.40;99.90
49042;DHT22;34859;51.608;11.462;2024-02-26T13:41:11;9.50;99.90
49042;DHT22;34859;51.608;11.462;2024-02-26T13:43:57;9.50;99.90
49042;DHT22;34859;51.608;11.462;2024-02-26T13:46:43;9.50;99.90
49042;DHT22;34859;51.608;11.462;2024-02-26T13:49:29;9.50;99.90
49042;DHT22;34859;51.608;11.462;2024-02-26T13:52:15;9.50;99.90
49042;DHT22;34859;51.608;11.462;2024-02-26T13:55:01;9.60;99.90
49042;DHT22;34859;51.608;11.462;2024-02-26T13:57:48;9.60;99.90
49042;DHT22;34859;51.608;11.462;2024-02-26T14:00:34;9.70;99.90
49042;DHT22;34859;51.608;11.462;2024-02-26T14:03:20;9.80;99.90
49042;DHT22;34859;51.608;11.462;2024-02-26T14:06:06;9.80;99.90
49042;DHT22;34859;51.608;11.462;2024-02-26T14:08:52;9.70;99.90
49042;DHT22;34859;51.608;11.462;2024-02-26T14:11:38;9.70;99.90
49042;DHT22;34859;51.608;11.462;2024-02-26T14:14:25;9.50;99.90
49042;DHT22;34859;51.608;11.462;2024-02-26T14:17:11;9.30;99.90
49042;DHT22;34859;51.608;11.462;2024-02-26T14:19:58;9.30;99.90
49042;DHT22;34859;51.608;11.462;2024-02-26T14:22:44;9.20;99.90
49042;DHT22;34859;51.608;11.462;2024-02-26T14:25:30;9.00;99.90
49042;DHT22;34859;51.608;11.462;2024-02-26T14:28:16;9.10;99.90
49042;DHT22;34859;51.608;11.462;2024-02-26T14:31:02;9.00;99.90
49042;DHT22;34859;51.608;11.462;2024-02-26T14:33:49;8.90;99.90
49042;DHT22;34859;51.608;11.462;2024-02-26T14:36:38;8.90;99.90
49042;DHT22;34859;51.608;11.462;2024-02-26T14:39:24;9.00;99.90
49042;DHT22;34859;51.608;11.462;2024-02-26T14:42:10;9.00;99.90
49042;DHT22;34859;51.608;11.462;2024-02-26T14:44:56;9.10;99.90
49042;DHT22;34859;51.608;11.462;2024-02-26T14:47:42;9.20;99.90
49042;DHT22;34859;51.608;11.462;2024-02-26T14:50:28;9.30;99.90
49042;DHT22;34859;51.608;11.462;2024-02-26T14:53:15;9.30;99.90
49042;DHT22;34859;51.608;11.462;2024-02-26T14:56:01;9.30;99.90
49042;DHT22;34859;51.608;11.462;2024-02-26T14:58:46;9.40;99.90
49042;DHT22;34859;51.608;11.462;2024-02-26T15:01:32;9.40;99.90
49042;DHT22;34859;51.608;11.462;2024-02-26T15:04:18;9.40;99.90
49042;DHT22;34859;51.608;11.462;2024-02-26T15:07:05;9.40;99.90
49042;DHT22;34859;51.608;11.462;2024-02-26T15:09:51;9.40;99.90
49042;DHT22;34859;51.608;11.462;2024-02-26T15:12:37;9.50;99.90
49042;DHT22;34859;51.608;11.462;2024-02-26T15:15:23;9.40;99.90
49042;DHT22;34859;51.608;11.462;2024-02-26T15:18:09;9.30;99.90
49042;DHT22;34859;51.608;11.462;2024-02-26T15:20:57;9.30;99.90
49042;DHT22;34859;51.608;11.462;2024-02-26T15:23:43;9.20;99.90
49042;DHT22;34859;51.608;11.462;2024-02-26T15:26:30;9.20;99.90
49042;DHT22;34859;51.608;11.462;2024-02-26T15:29:16;9.10;99.90
49042;DHT22;34859;51.608;11.462;2024-02-26T15:32:02;9.00;99.90
49042;DHT22;34859;51.608;11.462;2024-02-26T15:34:48;9.00;99.90
49042;DHT22;34859;51.608;11.462;2024-02-26T15:37:34;9.00;99.90
49042;DHT22;34859;51.608;11.462;2024-02-26T15:40:20;9.00;99.90
49042;DHT22;34859;51.608;11.462;2024-02-26T15:43:07;9.00;99.90
49042;DHT22;34859;51.608;11.462;2024-02-26T15:45:53;9.00;99.90
49042;DHT22;34859;51.608;11.462;2024-02-26T15:48:39;8.90;99.90
49042;DHT22;34859;51.608;11.462;2024-02-26T15:51:25;8.90;99.90
49042;DHT22;34859;51.608;11.462;2024-02-26T15:54:11;8.80;99.90
49042;DHT22;34859;51.608;11.462;2024-02-26T15:56:57;8.70;99.90
49042;DHT22;34859;51.608;11.462;2024-02-26T15:59:43;8.60;99.90
49042;DHT22;34859;51.608;11.462;2024-02-26T16:02:29;8.60;99.90
49042;DHT22;34859;51.608;11.462;2024-02-26T16:05:15;8.50;99.90
49042;DHT22;34859;51.608;11.462;2024-02-26T16:08:05;8.40;99.90
49042;DHT22;34859;51.608;11.462;2024-02-26T16:10:52;8.40;99.90
49042;DHT22;34859;51.608;11.462;2024-02-26T16:13:38;8.40;99.90
49042;DHT22;34859;51.608;11.462;2024-02-26T16:16:25;8.40;99.90
49042;DHT22;34859;51.608;11.462;2024-02-26T16:19:13;8.40;99.90
49042;DHT22;34859;51.608;11.462;2024-02-26T16:22:00;8.40;99.90
49042;DHT22;34859;51.608;11.462;2024-02-26T16:24:46;8.40;99.90
49042;DHT22;34859;51.608;11.462;2024-02-26T16:27:32;8.30;99.90
49042;DHT22;34859;51.608;11.462;2024-02-26T16:30:18;8.30;99.90
49042;DHT22;34859;51.608;11.462;2024-02-26T16:33:04;8.20;99.90
49042;DHT22;34859;51.608;11.462;2024-02-26T16:35:50;8.20;99.90
49042;DHT22;34859;51.608;11.462;2024-02-26T16:38:36;8.10;99.90
49042;DHT22;34859;51.608;11.462;2024-02-26T16:41:23;8.10;99.90
49042;DHT22;34859;51.608;11.462;2024-02-26T16:44:09;8.00;99.90
49042;DHT22;34859;51.608;11.462;2024-02-26T16:46:55;8.00;99.90
49042;DHT22;34859;51.608;11.462;2024-02-26T16:49:41;7.90;99.90
49042;DHT22;34859;51.608;11.462;2024-02-26T16:52:28;7.80;99.90
49042;DHT22;34859;51.608;11.462;2024-02-26T16:55:14;7.80;99.90
49042;DHT22;34859;51.608;11.462;2024-02-26T16:57:59;7.70;99.90
49042;DHT22;34859;51.608;11.462;2024-02-26T17:00:45;7.60;99.90
49042;DHT22;34859;51.608;11.462;2024-02-26T17:03:31;7.60;99.90
49042;DHT22;34859;51.608;11.462;2024-02-26T17:06:17;7.50;99.90
49042;DHT22;34859;51.608;11.462;2024-02-26T17:09:08;7.50;99.90
49042;DHT22;34859;51.608;11.462;2024-02-26T17:11:54;7.40;99.90
49042;DHT22;34859;51.608;11.462;2024-02-26T17:14:41;7.30;99.90
49042;DHT22;34859;51.608;11.462;2024-02-26T17:17:30;7.30;99.90
49042;DHT22;34859;51.608;11.462;2024-02-26T17:20:16;7.20;99.90
49042;DHT22;34859;51.608;11.462;2024-02-26T17:23:02;7.20;99.90
49042;DHT22;34859;51.608;11.462;2024-02-26T17:25:49;7.10;99.90
49042;DHT22;34859;51.608;11.462;2024-02-26T17:28:36;7.10;99.90